Terminal Aerodrome Forecast
Issued by NWS Tampa Bay Area, FL

Home | Current Version | Previous Version | Text Only | Print | Product List | Glossary On
Versions: 1 2 3 4 5 6 7 8 9 10 11 12 13 14 15 16 17 18 19 20 21 22 23 24 25
000
FTUS42 KTBW 282000 AAA
TAFTPA
TAF AMD
KTPA 282056Z 2821/2918 25012KT P6SM VCSH SCT035
     FM282300 26012KT P6SM SCT025
     FM290600 25010KT P6SM VCSH SCT025
     FM291400 27010KT P6SM VCTS SCT025CB BKN040=

USA.gov is the U.S. government's official web portal to all federal, state and local government web resources and services.